sensor_id;sensor_type;location;lat;lon;timestamp;P1;P2;P0
65973;PMS5003;52729;54.906;73.316;2022-07-23T00:00:22;0.00;0.00;0.00
65973;PMS5003;52729;54.906;73.316;2022-07-23T00:03:27;0.75;0.00;0.00
65973;PMS5003;52729;54.906;73.316;2022-07-23T00:06:33;0.00;0.00;0.00
65973;PMS5003;52729;54.906;73.316;2022-07-23T00:09:34;2.00;2.00;0.00
65973;PMS5003;52729;54.906;73.316;2022-07-23T00:12:37;1.00;0.75;0.00
65973;PMS5003;52729;54.906;73.316;2022-07-23T00:15:38;2.00;0.00;0.00
65973;PMS5003;52729;54.906;73.316;2022-07-23T00:18:39;5.00;4.00;0.00
65973;PMS5003;52729;54.906;73.316;2022-07-23T00:21:40;5.50;5.00;0.00
65973;PMS5003;52729;54.906;73.316;2022-07-23T00:24:41;5.50;5.00;0.00
65973;PMS5003;52729;54.906;73.316;2022-07-23T00:27:42;4.50;2.50;0.00
65973;PMS5003;52729;54.906;73.316;2022-07-23T00:30:43;5.00;5.00;0.00
65973;PMS5003;52729;54.906;73.316;2022-07-23T00:33:44;1.75;1.75;0.00
65973;PMS5003;52729;54.906;73.316;2022-07-23T00:36:45;3.00;3.00;0.00
65973;PMS5003;52729;54.906;73.316;2022-07-23T00:39:51;3.00;2.00;0.00
65973;PMS5003;52729;54.906;73.316;2022-07-23T00:43:03;3.00;2.75;0.00
65973;PMS5003;52729;54.906;73.316;2022-07-23T00:46:04;1.50;1.50;0.00
65973;PMS5003;52729;54.906;73.316;2022-07-23T00:49:05;2.00;2.00;0.00
65973;PMS5003;52729;54.906;73.316;2022-07-23T00:52:07;4.00;4.00;0.00
65973;PMS5003;52729;54.906;73.316;2022-07-23T00:55:09;4.50;4.00;1.00
65973;PMS5003;52729;54.906;73.316;2022-07-23T00:58:10;3.00;3.00;0.00
65973;PMS5003;52729;54.906;73.316;2022-07-23T01:01:12;3.00;3.00;0.00
65973;PMS5003;52729;54.906;73.316;2022-07-23T01:04:13;3.00;3.00;0.00
65973;PMS5003;52729;54.906;73.316;2022-07-23T01:07:16;5.50;5.25;0.00
65973;PMS5003;52729;54.906;73.316;2022-07-23T01:10:17;4.00;4.00;0.00
65973;PMS5003;52729;54.906;73.316;2022-07-23T01:13:33;4.75;3.75;0.00
65973;PMS5003;52729;54.906;73.316;2022-07-23T01:16:34;5.75;4.75;1.00
65973;PMS5003;52729;54.906;73.316;2022-07-23T01:19:35;5.00;3.00;1.00
65973;PMS5003;52729;54.906;73.316;2022-07-23T01:22:36;4.25;3.25;0.00
65973;PMS5003;52729;54.906;73.316;2022-07-23T01:25:48;6.00;4.75;1.00
65973;PMS5003;52729;54.906;73.316;2022-07-23T01:28:50;4.50;3.00;1.00
65973;PMS5003;52729;54.906;73.316;2022-07-23T01:31:51;4.25;4.25;2.00
65973;PMS5003;52729;54.906;73.316;2022-07-23T01:34:52;6.00;6.00;2.00
65973;PMS5003;52729;54.906;73.316;2022-07-23T01:37:53;5.75;5.00;2.00
65973;PMS5003;52729;54.906;73.316;2022-07-23T01:40:55;4.50;4.25;0.00
65973;PMS5003;52729;54.906;73.316;2022-07-23T01:44:02;2.00;2.00;0.00
65973;PMS5003;52729;54.906;73.316;2022-07-23T01:47:03;1.75;1.75;0.00
65973;PMS5003;52729;54.906;73.316;2022-07-23T01:50:15;2.00;2.00;0.00
65973;PMS5003;52729;54.906;73.316;2022-07-23T01:53:21;2.00;2.00;0.00
65973;PMS5003;52729;54.906;73.316;2022-07-23T01:56:22;2.50;2.25;0.00
65973;PMS5003;52729;54.906;73.316;2022-07-23T01:59:34;3.50;3.00;0.00
65973;PMS5003;52729;54.906;73.316;2022-07-23T02:02:35;4.00;1.75;0.00
65973;PMS5003;52729;54.906;73.316;2022-07-23T02:05:37;3.50;3.25;0.00
65973;PMS5003;52729;54.906;73.316;2022-07-23T02:08:38;3.00;3.00;0.00
65973;PMS5003;52729;54.906;73.316;2022-07-23T02:11:39;3.25;3.25;1.00
65973;PMS5003;52729;54.906;73.316;2022-07-23T02:14:50;3.00;3.00;0.00
65973;PMS5003;52729;54.906;73.316;2022-07-23T02:17:51;4.00;4.00;0.00
65973;PMS5003;52729;54.906;73.316;2022-07-23T02:20:53;2.00;1.75;0.00
65973;PMS5003;52729;54.906;73.316;2022-07-23T02:23:59;2.75;1.75;0.00
65973;PMS5003;52729;54.906;73.316;2022-07-23T02:27:00;5.00;4.00;0.00
65973;PMS5003;52729;54.906;73.316;2022-07-23T02:30:11;3.00;2.00;0.00
65973;PMS5003;52729;54.906;73.316;2022-07-23T02:33:12;3.00;3.00;0.00
65973;PMS5003;52729;54.906;73.316;2022-07-23T02:36:15;6.00;5.75;0.00
65973;PMS5003;52729;54.906;73.316;2022-07-23T02:39:17;5.50;4.00;0.00
65973;PMS5003;52729;54.906;73.316;2022-07-23T02:42:23;3.25;3.00;0.00
65973;PMS5003;52729;54.906;73.316;2022-07-23T02:45:34;4.75;4.25;0.00
65973;PMS5003;52729;54.906;73.316;2022-07-23T02:48:40;3.00;2.75;0.00
65973;PMS5003;52729;54.906;73.316;2022-07-23T02:51:41;3.00;2.75;0.00
65973;PMS5003;52729;54.906;73.316;2022-07-23T02:54:43;2.00;2.00;0.00
65973;PMS5003;52729;54.906;73.316;2022-07-23T02:57:48;2.75;2.75;0.00
65973;PMS5003;52729;54.906;73.316;2022-07-23T03:00:49;0.50;0.50;0.00
65973;PMS5003;52729;54.906;73.316;2022-07-23T03:03:56;1.00;1.00;0.00
65973;PMS5003;52729;54.906;73.316;2022-07-23T03:07:05;0.50;0.50;0.00
65973;PMS5003;52729;54.906;73.316;2022-07-23T03:10:07;1.00;1.00;0.00
65973;PMS5003;52729;54.906;73.316;2022-07-23T03:13:08;2.00;1.50;0.00
65973;PMS5003;52729;54.906;73.316;2022-07-23T03:16:15;2.00;2.00;0.00
65973;PMS5003;52729;54.906;73.316;2022-07-23T03:19:16;3.00;2.00;0.00
65973;PMS5003;52729;54.906;73.316;2022-07-23T03:22:17;4.00;3.75;0.00
65973;PMS5003;52729;54.906;73.316;2022-07-23T03:25:18;2.00;2.00;0.00
65973;PMS5003;52729;54.906;73.316;2022-07-23T03:28:29;2.00;2.00;0.00
65973;PMS5003;52729;54.906;73.316;2022-07-23T03:31:40;3.00;3.00;0.00
65973;PMS5003;52729;54.906;73.316;2022-07-23T03:34:42;3.00;3.00;0.00
65973;PMS5003;52729;54.906;73.316;2022-07-23T03:37:53;2.00;2.00;0.00
65973;PMS5003;52729;54.906;73.316;2022-07-23T03:40:54;2.00;1.00;0.00
65973;PMS5003;52729;54.906;73.316;2022-07-23T03:44:05;4.50;3.75;0.00
65973;PMS5003;52729;54.906;73.316;2022-07-23T03:47:06;4.00;4.00;0.00
65973;PMS5003;52729;54.906;73.316;2022-07-23T03:50:07;5.00;5.00;0.00
65973;PMS5003;52729;54.906;73.316;2022-07-23T03:53:09;3.50;3.50;1.00
65973;PMS5003;52729;54.906;73.316;2022-07-23T03:56:10;4.25;3.00;1.00
65973;PMS5003;52729;54.906;73.316;2022-07-23T03:59:16;4.00;3.00;1.00
65973;PMS5003;52729;54.906;73.316;2022-07-23T04:02:17;5.50;3.75;0.00
65973;PMS5003;52729;54.906;73.316;2022-07-23T04:05:18;4.00;4.00;0.00
65973;PMS5003;52729;54.906;73.316;2022-07-23T04:08:23;3.25;3.00;0.00
65973;PMS5003;52729;54.906;73.316;2022-07-23T04:11:31;3.00;3.00;0.00
65973;PMS5003;52729;54.906;73.316;2022-07-23T04:14:32;1.00;1.00;0.00
65973;PMS5003;52729;54.906;73.316;2022-07-23T04:17:33;4.00;4.00;0.00
65973;PMS5003;52729;54.906;73.316;2022-07-23T04:20:46;4.00;3.00;0.00
65973;PMS5003;52729;54.906;73.316;2022-07-23T04:23:47;3.00;3.00;0.00
65973;PMS5003;52729;54.906;73.316;2022-07-23T04:26:58;4.00;4.00;0.00
65973;PMS5003;52729;54.906;73.316;2022-07-23T04:29:59;3.00;2.75;0.00
65973;PMS5003;52729;54.906;73.316;2022-07-23T04:33:00;4.00;3.00;0.25
65973;PMS5003;52729;54.906;73.316;2022-07-23T04:36:03;2.50;2.50;1.00
65973;PMS5003;52729;54.906;73.316;2022-07-23T04:39:05;4.75;4.25;0.00
65973;PMS5003;52729;54.906;73.316;2022-07-23T04:42:06;5.00;5.00;1.00
65973;PMS5003;52729;54.906;73.316;2022-07-23T04:45:15;4.00;3.75;1.00
65973;PMS5003;52729;54.906;73.316;2022-07-23T04:48:23;4.00;3.00;0.00
65973;PMS5003;52729;54.906;73.316;2022-07-23T04:51:32;3.75;3.00;0.00
65973;PMS5003;52729;54.906;73.316;2022-07-23T04:54:34;2.00;1.00;0.00
65973;PMS5003;52729;54.906;73.316;2022-07-23T04:57:36;3.75;3.00;0.00
65973;PMS5003;52729;54.906;73.316;2022-07-23T05:00:38;3.25;3.25;0.00
65973;PMS5003;52729;54.906;73.316;2022-07-23T05:03:39;1.00;0.00;0.00
65973;PMS5003;52729;54.906;73.316;2022-07-23T05:06:41;3.25;2.25;0.00
65973;PMS5003;52729;54.906;73.316;2022-07-23T05:09:52;3.00;3.00;0.00
65973;PMS5003;52729;54.906;73.316;2022-07-23T05:12:53;4.50;3.50;0.00
65973;PMS5003;52729;54.906;73.316;2022-07-23T05:15:59;4.00;4.00;2.00
65973;PMS5003;52729;54.906;73.316;2022-07-23T05:19:05;4.25;4.25;1.00
65973;PMS5003;52729;54.906;73.316;2022-07-23T05:22:09;3.00;3.00;1.00
65973;PMS5003;52729;54.906;73.316;2022-07-23T05:25:10;2.75;2.75;0.00
65973;PMS5003;52729;54.906;73.316;2022-07-23T05:28:11;4.25;4.00;0.00
65973;PMS5003;52729;54.906;73.316;2022-07-23T05:31:13;3.00;2.00;0.00
65973;PMS5003;52729;54.906;73.316;2022-07-23T05:34:14;3.25;3.25;0.00
65973;PMS5003;52729;54.906;73.316;2022-07-23T05:37:16;4.25;3.50;1.00
65973;PMS5003;52729;54.906;73.316;2022-07-23T05:40:19;2.00;2.00;1.00
65973;PMS5003;52729;54.906;73.316;2022-07-23T05:43:20;2.25;2.25;1.00
65973;PMS5003;52729;54.906;73.316;2022-07-23T05:46:21;3.00;3.00;0.00
65973;PMS5003;52729;54.906;73.316;2022-07-23T05:49:27;4.75;4.75;2.00
65973;PMS5003;52729;54.906;73.316;2022-07-23T05:52:48;5.00;4.00;1.00
65973;PMS5003;52729;54.906;73.316;2022-07-23T05:56:09;4.75;4.00;1.00
65973;PMS5003;52729;54.906;73.316;2022-07-23T05:59:12;5.00;5.00;1.00
65973;PMS5003;52729;54.906;73.316;2022-07-23T06:02:13;3.50;3.50;0.50
65973;PMS5003;52729;54.906;73.316;2022-07-23T06:05:15;3.00;3.00;0.00
65973;PMS5003;52729;54.906;73.316;2022-07-23T06:08:16;2.25;2.25;0.00
65973;PMS5003;52729;54.906;73.316;2022-07-23T06:11:17;3.25;3.25;0.00
65973;PMS5003;52729;54.906;73.316;2022-07-23T06:14:29;4.00;3.75;0.00
65973;PMS5003;52729;54.906;73.316;2022-07-23T06:17:32;5.00;5.00;1.00
65973;PMS5003;52729;54.906;73.316;2022-07-23T06:20:33;5.00;3.00;1.00
65973;PMS5003;52729;54.906;73.316;2022-07-23T06:23:39;6.00;5.00;0.00
65973;PMS5003;52729;54.906;73.316;2022-07-23T06:26:40;5.00;5.00;0.00
65973;PMS5003;52729;54.906;73.316;2022-07-23T06:29:41;4.25;4.25;0.00
65973;PMS5003;52729;54.906;73.316;2022-07-23T06:32:42;3.50;3.25;0.00
65973;PMS5003;52729;54.906;73.316;2022-07-23T06:35:49;6.00;6.00;2.00
65973;PMS5003;52729;54.906;73.316;2022-07-23T06:38:53;6.25;6.25;3.00
65973;PMS5003;52729;54.906;73.316;2022-07-23T06:41:59;6.00;6.00;2.00
65973;PMS5003;52729;54.906;73.316;2022-07-23T06:45:11;5.25;5.25;2.00
65973;PMS5003;52729;54.906;73.316;2022-07-23T06:48:12;5.00;5.00;2.00
65973;PMS5003;52729;54.906;73.316;2022-07-23T06:51:14;6.00;6.00;1.00
65973;PMS5003;52729;54.906;73.316;2022-07-23T06:54:21;6.00;6.00;1.75
65973;PMS5003;52729;54.906;73.316;2022-07-23T06:57:22;6.50;5.00;2.75
65973;PMS5003;52729;54.906;73.316;2022-07-23T07:00:23;5.00;5.00;3.00
65973;PMS5003;52729;54.906;73.316;2022-07-23T07:03:27;5.50;5.50;2.50
65973;PMS5003;52729;54.906;73.316;2022-07-23T07:06:28;8.00;7.00;4.00
65973;PMS5003;52729;54.906;73.316;2022-07-23T07:09:31;5.00;5.00;3.00
65973;PMS5003;52729;54.906;73.316;2022-07-23T07:12:32;5.00;4.75;2.00
65973;PMS5003;52729;54.906;73.316;2022-07-23T07:15:33;3.75;3.50;1.00
65973;PMS5003;52729;54.906;73.316;2022-07-23T07:18:43;4.00;4.00;1.00
65973;PMS5003;52729;54.906;73.316;2022-07-23T07:21:44;5.00;4.00;1.75
65973;PMS5003;52729;54.906;73.316;2022-07-23T07:24:45;5.00;4.00;2.00
65973;PMS5003;52729;54.906;73.316;2022-07-23T07:27:46;5.00;4.00;1.00
65973;PMS5003;52729;54.906;73.316;2022-07-23T07:30:47;5.00;5.00;0.00
65973;PMS5003;52729;54.906;73.316;2022-07-23T07:33:48;6.50;5.25;1.00
65973;PMS5003;52729;54.906;73.316;2022-07-23T07:36:49;6.00;4.00;2.00
65973;PMS5003;52729;54.906;73.316;2022-07-23T07:39:50;7.00;7.00;3.00
65973;PMS5003;52729;54.906;73.316;2022-07-23T07:42:52;5.00;5.00;2.00
65973;PMS5003;52729;54.906;73.316;2022-07-23T07:45:58;4.00;4.00;1.00
65973;PMS5003;52729;54.906;73.316;2022-07-23T07:48:59;9.00;8.00;4.75
65973;PMS5003;52729;54.906;73.316;2022-07-23T07:52:00;25.50;24.75;15.25
65973;PMS5003;52729;54.906;73.316;2022-07-23T07:55:02;33.25;31.00;21.00
65973;PMS5003;52729;54.906;73.316;2022-07-23T07:58:04;18.50;17.75;10.75
65973;PMS5003;52729;54.906;73.316;2022-07-23T08:01:05;8.50;8.00;4.00
65973;PMS5003;52729;54.906;73.316;2022-07-23T08:04:06;5.75;5.75;3.00
65973;PMS5003;52729;54.906;73.316;2022-07-23T08:07:07;5.00;4.50;1.00
65973;PMS5003;52729;54.906;73.316;2022-07-23T08:10:08;4.50;4.50;1.50
65973;PMS5003;52729;54.906;73.316;2022-07-23T08:13:15;6.00;5.75;2.00
65973;PMS5003;52729;54.906;73.316;2022-07-23T08:16:17;7.00;7.00;3.00
65973;PMS5003;52729;54.906;73.316;2022-07-23T08:19:20;8.00;7.50;4.00
65973;PMS5003;52729;54.906;73.316;2022-07-23T08:22:21;9.00;9.00;5.00
65973;PMS5003;52729;54.906;73.316;2022-07-23T08:25:26;7.50;7.50;3.00
65973;PMS5003;52729;54.906;73.316;2022-07-23T08:28:34;5.00;5.00;3.00
65973;PMS5003;52729;54.906;73.316;2022-07-23T08:31:35;8.00;7.00;4.00
65973;PMS5003;52729;54.906;73.316;2022-07-23T08:34:46;8.00;7.00;3.25
65973;PMS5003;52729;54.906;73.316;2022-07-23T08:37:47;7.00;6.00;4.00
65973;PMS5003;52729;54.906;73.316;2022-07-23T08:40:49;7.00;7.00;3.00
65973;PMS5003;52729;54.906;73.316;2022-07-23T08:43:50;7.00;7.00;2.00
65973;PMS5003;52729;54.906;73.316;2022-07-23T08:46:52;6.00;6.00;2.50
65973;PMS5003;52729;54.906;73.316;2022-07-23T08:49:53;5.00;5.00;1.75
65973;PMS5003;52729;54.906;73.316;2022-07-23T08:52:54;7.00;7.00;2.50
65973;PMS5003;52729;54.906;73.316;2022-07-23T08:55:58;8.00;8.00;4.00
65973;PMS5003;52729;54.906;73.316;2022-07-23T08:58:59;16.00;13.00;5.25
65973;PMS5003;52729;54.906;73.316;2022-07-23T09:02:00;13.25;13.00;4.50
65973;PMS5003;52729;54.906;73.316;2022-07-23T09:05:04;6.00;6.00;3.00
65973;PMS5003;52729;54.906;73.316;2022-07-23T09:08:10;7.00;6.00;2.00
65973;PMS5003;52729;54.906;73.316;2022-07-23T09:11:16;5.00;5.00;3.00
65973;PMS5003;52729;54.906;73.316;2022-07-23T09:14:18;5.00;5.00;2.00
65973;PMS5003;52729;54.906;73.316;2022-07-23T09:17:37;6.00;6.00;2.00
65973;PMS5003;52729;54.906;73.316;2022-07-23T09:20:38;5.00;5.00;2.75
65973;PMS5003;52729;54.906;73.316;2022-07-23T09:23:53;6.75;6.75;3.50
65973;PMS5003;52729;54.906;73.316;2022-07-23T09:27:00;5.00;5.00;3.00
65973;PMS5003;52729;54.906;73.316;2022-07-23T09:30:01;7.00;6.00;3.00
65973;PMS5003;52729;54.906;73.316;2022-07-23T09:33:16;7.00;7.00;2.50
65973;PMS5003;52729;54.906;73.316;2022-07-23T09:36:29;7.00;7.00;2.00
65973;PMS5003;52729;54.906;73.316;2022-07-23T09:39:32;7.00;6.00;1.00
65973;PMS5003;52729;54.906;73.316;2022-07-23T09:42:36;7.00;7.00;3.00
65973;PMS5003;52729;54.906;73.316;2022-07-23T09:45:39;10.00;9.00;4.00
65973;PMS5003;52729;54.906;73.316;2022-07-23T09:48:45;5.00;5.00;3.00
65973;PMS5003;52729;54.906;73.316;2022-07-23T09:51:52;6.25;6.00;3.00
65973;PMS5003;52729;54.906;73.316;2022-07-23T09:55:00;7.00;5.00;3.00
65973;PMS5003;52729;54.906;73.316;2022-07-23T09:58:02;4.00;4.00;2.00
65973;PMS5003;52729;54.906;73.316;2022-07-23T10:01:03;5.00;4.50;2.00
65973;PMS5003;52729;54.906;73.316;2022-07-23T10:04:04;7.00;7.00;3.00
65973;PMS5003;52729;54.906;73.316;2022-07-23T10:07:27;9.00;8.00;2.00
65973;PMS5003;52729;54.906;73.316;2022-07-23T10:10:48;6.00;5.25;1.00
65973;PMS5003;52729;54.906;73.316;2022-07-23T10:14:09;7.00;7.00;2.00
65973;PMS5003;52729;54.906;73.316;2022-07-23T10:17:31;5.00;4.00;2.00
65973;PMS5003;52729;54.906;73.316;2022-07-23T10:20:32;4.25;3.75;1.00
65973;PMS5003;52729;54.906;73.316;2022-07-23T10:23:35;6.00;6.00;2.00
65973;PMS5003;52729;54.906;73.316;2022-07-23T10:26:42;7.00;6.00;3.00
65973;PMS5003;52729;54.906;73.316;2022-07-23T10:32:53;4.00;3.00;2.00
65973;PMS5003;52729;54.906;73.316;2022-07-23T10:36:08;4.25;4.00;1.00
65973;PMS5003;52729;54.906;73.316;2022-07-23T10:39:19;6.00;2.75;0.00
65973;PMS5003;52729;54.906;73.316;2022-07-23T10:42:29;6.00;5.25;0.00
65973;PMS5003;52729;54.906;73.316;2022-07-23T10:45:36;8.00;5.00;1.25
65973;PMS5003;52729;54.906;73.316;2022-07-23T10:48:40;5.00;5.00;2.00
65973;PMS5003;52729;54.906;73.316;2022-07-23T10:52:02;4.00;4.00;1.00
65973;PMS5003;52729;54.906;73.316;2022-07-23T10:58:11;3.00;3.00;1.00
65973;PMS5003;52729;54.906;73.316;2022-07-23T11:01:37;4.00;4.00;1.00
65973;PMS5003;52729;54.906;73.316;2022-07-23T11:04:48;5.00;5.00;1.00
65973;PMS5003;52729;54.906;73.316;2022-07-23T11:11:15;6.00;6.00;2.00
65973;PMS5003;52729;54.906;73.316;2022-07-23T11:14:16;6.50;6.50;4.00
65973;PMS5003;52729;54.906;73.316;2022-07-23T11:20:43;6.00;6.00;1.00
65973;PMS5003;52729;54.906;73.316;2022-07-23T11:26:59;4.00;3.00;0.00
65973;PMS5003;52729;54.906;73.316;2022-07-23T11:30:00;5.75;5.00;0.00
65973;PMS5003;52729;54.906;73.316;2022-07-23T11:36:13;6.75;5.00;2.00
65973;PMS5003;52729;54.906;73.316;2022-07-23T11:39:13;4.00;3.25;1.00
65973;PMS5003;52729;54.906;73.316;2022-07-23T11:42:25;3.00;3.00;0.00
65973;PMS5003;52729;54.906;73.316;2022-07-23T11:49:05;4.00;4.00;1.00
65973;PMS5003;52729;54.906;73.316;2022-07-23T11:52:11;4.00;4.00;1.00
65973;PMS5003;52729;54.906;73.316;2022-07-23T11:55:12;6.00;4.00;2.25
65973;PMS5003;52729;54.906;73.316;2022-07-23T11:58:16;5.75;5.50;3.00
65973;PMS5003;52729;54.906;73.316;2022-07-23T12:01:17;5.00;4.75;2.00
65973;PMS5003;52729;54.906;73.316;2022-07-23T12:04:18;5.00;4.00;1.00
65973;PMS5003;52729;54.906;73.316;2022-07-23T12:07:34;3.50;3.00;0.00
65973;PMS5003;52729;54.906;73.316;2022-07-23T12:10:45;5.00;4.00;1.00
65973;PMS5003;52729;54.906;73.316;2022-07-23T12:13:55;5.00;4.00;2.00
65973;PMS5003;52729;54.906;73.316;2022-07-23T12:17:09;3.25;3.25;1.00
65973;PMS5003;52729;54.906;73.316;2022-07-23T12:20:21;4.25;4.00;1.00
65973;PMS5003;52729;54.906;73.316;2022-07-23T12:23:24;3.00;3.00;1.00
65973;PMS5003;52729;54.906;73.316;2022-07-23T12:26:25;6.00;6.00;1.25
65973;PMS5003;52729;54.906;73.316;2022-07-23T12:29:35;6.00;5.00;1.00
65973;PMS5003;52729;54.906;73.316;2022-07-23T12:32:42;5.00;5.00;2.00
65973;PMS5003;52729;54.906;73.316;2022-07-23T12:35:45;6.25;5.00;1.00
65973;PMS5003;52729;54.906;73.316;2022-07-23T12:38:46;6.50;5.00;2.00
65973;PMS5003;52729;54.906;73.316;2022-07-23T12:41:53;4.50;4.25;1.00
65973;PMS5003;52729;54.906;73.316;2022-07-23T12:45:05;6.25;6.25;2.25
65973;PMS5003;52729;54.906;73.316;2022-07-23T12:48:06;6.25;6.00;2.25
65973;PMS5003;52729;54.906;73.316;2022-07-23T12:54:09;3.00;3.00;0.00
65973;PMS5003;52729;54.906;73.316;2022-07-23T12:57:10;3.50;3.50;0.50
65973;PMS5003;52729;54.906;73.316;2022-07-23T13:00:11;1.00;1.00;0.00
65973;PMS5003;52729;54.906;73.316;2022-07-23T13:03:31;3.00;3.00;0.00
65973;PMS5003;52729;54.906;73.316;2022-07-23T13:06:38;4.00;3.00;0.00
65973;PMS5003;52729;54.906;73.316;2022-07-23T13:09:40;6.00;6.00;1.00
65973;PMS5003;52729;54.906;73.316;2022-07-23T13:12:41;6.50;6.00;1.00
65973;PMS5003;52729;54.906;73.316;2022-07-23T13:15:50;6.75;6.00;1.00
65973;PMS5003;52729;54.906;73.316;2022-07-23T13:18:52;4.00;4.00;0.00
65973;PMS5003;52729;54.906;73.316;2022-07-23T13:21:53;3.00;2.00;0.00
65973;PMS5003;52729;54.906;73.316;2022-07-23T13:24:54;7.00;6.00;0.00
65973;PMS5003;52729;54.906;73.316;2022-07-23T13:28:01;5.75;5.00;2.00
65973;PMS5003;52729;54.906;73.316;2022-07-23T13:31:10;4.25;4.25;2.00
65973;PMS5003;52729;54.906;73.316;2022-07-23T13:34:11;5.75;5.25;2.00
65973;PMS5003;52729;54.906;73.316;2022-07-23T13:37:18;7.50;7.50;4.00
65973;PMS5003;52729;54.906;73.316;2022-07-23T13:40:19;7.00;6.00;3.00
65973;PMS5003;52729;54.906;73.316;2022-07-23T13:43:21;5.75;5.75;2.50
65973;PMS5003;52729;54.906;73.316;2022-07-23T13:46:22;14.50;13.50;6.75
65973;PMS5003;52729;54.906;73.316;2022-07-23T13:49:23;25.50;21.50;10.00
65973;PMS5003;52729;54.906;73.316;2022-07-23T13:52:33;21.50;17.50;8.50
65973;PMS5003;52729;54.906;73.316;2022-07-23T13:55:35;15.25;11.00;3.50
65973;PMS5003;52729;54.906;73.316;2022-07-23T13:58:39;6.00;4.75;1.00
65973;PMS5003;52729;54.906;73.316;2022-07-23T14:01:41;6.50;6.00;1.00
65973;PMS5003;52729;54.906;73.316;2022-07-23T14:04:42;4.00;4.00;1.00
65973;PMS5003;52729;54.906;73.316;2022-07-23T14:07:50;7.25;7.00;3.25
65973;PMS5003;52729;54.906;73.316;2022-07-23T14:10:52;10.00;10.00;4.50
65973;PMS5003;52729;54.906;73.316;2022-07-23T14:13:53;7.25;7.00;4.00
65973;PMS5003;52729;54.906;73.316;2022-07-23T14:17:03;4.00;4.00;1.00
65973;PMS5003;52729;54.906;73.316;2022-07-23T14:20:09;4.00;3.00;0.75
65973;PMS5003;52729;54.906;73.316;2022-07-23T14:23:17;3.00;2.00;0.00
65973;PMS5003;52729;54.906;73.316;2022-07-23T14:26:19;3.25;3.00;0.00
65973;PMS5003;52729;54.906;73.316;2022-07-23T14:29:20;1.00;1.00;0.00
65973;PMS5003;52729;54.906;73.316;2022-07-23T14:32:21;2.25;1.50;0.00
65973;PMS5003;52729;54.906;73.316;2022-07-23T14:35:22;2.00;1.00;0.00
65973;PMS5003;52729;54.906;73.316;2022-07-23T14:38:24;3.50;1.75;0.00
65973;PMS5003;52729;54.906;73.316;2022-07-23T14:41:25;5.00;4.00;0.00
65973;PMS5003;52729;54.906;73.316;2022-07-23T14:44:26;3.50;3.50;0.00
65973;PMS5003;52729;54.906;73.316;2022-07-23T14:47:30;3.00;2.00;0.00
65973;PMS5003;52729;54.906;73.316;2022-07-23T14:50:31;2.75;1.75;0.00
65973;PMS5003;52729;54.906;73.316;2022-07-23T14:53:42;10.00;8.00;2.50
65973;PMS5003;52729;54.906;73.316;2022-07-23T14:56:43;16.75;15.25;7.00
65973;PMS5003;52729;54.906;73.316;2022-07-23T14:59:51;17.00;17.00;5.00
65973;PMS5003;52729;54.906;73.316;2022-07-23T15:02:55;10.50;10.50;4.25
65973;PMS5003;52729;54.906;73.316;2022-07-23T15:05:57;7.00;6.75;2.50
65973;PMS5003;52729;54.906;73.316;2022-07-23T15:08:58;6.50;5.50;2.00
65973;PMS5003;52729;54.906;73.316;2022-07-23T15:12:06;10.75;7.50;2.75
65973;PMS5003;52729;54.906;73.316;2022-07-23T15:15:10;7.00;7.00;3.00
65973;PMS5003;52729;54.906;73.316;2022-07-23T15:18:11;5.00;5.00;1.00
65973;PMS5003;52729;54.906;73.316;2022-07-23T15:21:12;5.00;5.00;1.00
65973;PMS5003;52729;54.906;73.316;2022-07-23T15:24:13;3.00;3.00;0.50
65973;PMS5003;52729;54.906;73.316;2022-07-23T15:27:14;3.00;3.00;1.00
65973;PMS5003;52729;54.906;73.316;2022-07-23T15:30:18;3.00;2.75;1.00
65973;PMS5003;52729;54.906;73.316;2022-07-23T15:33:24;4.00;3.00;0.00
65973;PMS5003;52729;54.906;73.316;2022-07-23T15:36:25;7.00;6.50;1.25
65973;PMS5003;52729;54.906;73.316;2022-07-23T15:39:27;11.50;10.50;4.50
65973;PMS5003;52729;54.906;73.316;2022-07-23T15:42:28;15.50;14.00;5.00
65973;PMS5003;52729;54.906;73.316;2022-07-23T15:45:32;12.75;9.75;4.00
65973;PMS5003;52729;54.906;73.316;2022-07-23T15:48:34;11.25;8.00;3.25
65973;PMS5003;52729;54.906;73.316;2022-07-23T15:51:39;7.75;5.00;2.25
65973;PMS5003;52729;54.906;73.316;2022-07-23T15:54:40;10.50;8.50;4.00
65973;PMS5003;52729;54.906;73.316;2022-07-23T15:57:42;10.50;9.00;3.00
65973;PMS5003;52729;54.906;73.316;2022-07-23T16:00:43;8.75;8.75;3.00
65973;PMS5003;52729;54.906;73.316;2022-07-23T16:03:44;10.00;9.00;4.00
65973;PMS5003;52729;54.906;73.316;2022-07-23T16:06:45;7.75;7.75;4.00
65973;PMS5003;52729;54.906;73.316;2022-07-23T16:09:53;15.00;14.00;6.75
65973;PMS5003;52729;54.906;73.316;2022-07-23T16:12:54;19.00;16.25;6.00
65973;PMS5003;52729;54.906;73.316;2022-07-23T16:15:55;14.00;13.00;5.00
65973;PMS5003;52729;54.906;73.316;2022-07-23T16:18:56;9.25;8.00;4.00
65973;PMS5003;52729;54.906;73.316;2022-07-23T16:22:02;7.50;7.00;3.00
65973;PMS5003;52729;54.906;73.316;2022-07-23T16:25:13;6.75;6.75;2.00
65973;PMS5003;52729;54.906;73.316;2022-07-23T16:28:25;9.00;9.00;4.00
65973;PMS5003;52729;54.906;73.316;2022-07-23T16:31:26;6.00;5.00;3.00
65973;PMS5003;52729;54.906;73.316;2022-07-23T16:34:37;6.50;5.50;3.00
65973;PMS5003;52729;54.906;73.316;2022-07-23T16:37:43;5.00;5.00;2.00
65973;PMS5003;52729;54.906;73.316;2022-07-23T16:40:50;5.75;5.75;2.00
65973;PMS5003;52729;54.906;73.316;2022-07-23T16:43:51;8.25;7.75;2.00
65973;PMS5003;52729;54.906;73.316;2022-07-23T16:46:57;5.00;5.00;2.00
65973;PMS5003;52729;54.906;73.316;2022-07-23T16:49:58;7.25;7.00;4.00
65973;PMS5003;52729;54.906;73.316;2022-07-23T16:53:10;5.75;5.75;3.25
65973;PMS5003;52729;54.906;73.316;2022-07-23T16:56:11;6.75;6.25;2.00
65973;PMS5003;52729;54.906;73.316;2022-07-23T16:59:12;6.00;5.00;2.00
65973;PMS5003;52729;54.906;73.316;2022-07-23T17:02:23;7.75;6.25;2.25
65973;PMS5003;52729;54.906;73.316;2022-07-23T17:05:24;5.00;5.00;2.00
65973;PMS5003;52729;54.906;73.316;2022-07-23T17:08:26;6.50;5.00;2.00
65973;PMS5003;52729;54.906;73.316;2022-07-23T17:11:32;4.50;4.50;1.00
65973;PMS5003;52729;54.906;73.316;2022-07-23T17:14:33;4.50;4.00;1.00
65973;PMS5003;52729;54.906;73.316;2022-07-23T17:17:34;8.75;6.50;1.00
65973;PMS5003;52729;54.906;73.316;2022-07-23T17:20:36;10.00;8.00;3.00
65973;PMS5003;52729;54.906;73.316;2022-07-23T17:23:37;5.25;4.00;1.00
65973;PMS5003;52729;54.906;73.316;2022-07-23T17:26:38;6.00;4.00;1.00
65973;PMS5003;52729;54.906;73.316;2022-07-23T17:29:43;8.00;7.00;1.00
65973;PMS5003;52729;54.906;73.316;2022-07-23T17:32:51;5.00;4.25;1.00
65973;PMS5003;52729;54.906;73.316;2022-07-23T17:35:52;4.00;4.00;1.00
65973;PMS5003;52729;54.906;73.316;2022-07-23T17:38:56;5.50;5.50;2.25
65973;PMS5003;52729;54.906;73.316;2022-07-23T17:42:09;6.00;6.00;3.00
65973;PMS5003;52729;54.906;73.316;2022-07-23T17:45:10;4.00;3.75;0.00
65973;PMS5003;52729;54.906;73.316;2022-07-23T17:48:15;3.00;3.00;0.00
65973;PMS5003;52729;54.906;73.316;2022-07-23T17:51:16;4.00;3.00;0.00
65973;PMS5003;52729;54.906;73.316;2022-07-23T17:54:17;9.00;8.00;2.50
65973;PMS5003;52729;54.906;73.316;2022-07-23T17:57:27;6.50;6.00;3.00
65973;PMS5003;52729;54.906;73.316;2022-07-23T18:00:33;3.50;3.25;1.00
65973;PMS5003;52729;54.906;73.316;2022-07-23T18:03:35;3.00;2.00;1.00
65973;PMS5003;52729;54.906;73.316;2022-07-23T18:06:36;2.00;2.00;0.00